Terminal Aerodrome Forecast
Issued by NWS

Home | Current Version | Previous Version | Text Only | Print | Product List | Glossary On
Versions: 1 2 3 4 5 6 7 8 9 10 11 12 13 14 15 16 17
000
FTUS45 KGJT 260534
TAFASE
TAF
KASE 260534Z 2606/2706 17004KT P6SM BKN110
     FM261600 VRB03KT P6SM VCSH BKN060
     FM261800 VRB03KT P6SM VCTS BKN070CB
     FM270000 32005KT P6SM BKN070
     FM270200 25004KT P6SM BKN080
     FM270400 19004KT P6SM BKN060=

USA.gov is the U.S. government's official web portal to all federal, state and local government web resources and services.